sensor_id;sensor_type;location;lat;lon;timestamp;pressure;altitude;pressure_sealevel;temperature;humidity
65151;BME280;51918;51.856;0.150;2022-09-09T00:01:28;99354.03;;;16.20;70.82
65151;BME280;51918;51.856;0.150;2022-09-09T00:06:37;99359.88;;;16.28;70.53
65151;BME280;51918;51.856;0.150;2022-09-09T00:11:40;99362.25;;;16.29;70.59
65151;BME280;51918;51.856;0.150;2022-09-09T00:16:49;99352.78;;;16.23;70.78
65151;BME280;51918;51.856;0.150;2022-09-09T00:21:58;99363.03;;;16.30;70.71
65151;BME280;51918;51.856;0.150;2022-09-09T00:27:06;99353.00;;;16.33;70.47
65151;BME280;51918;51.856;0.150;2022-09-09T00:32:12;99348.25;;;16.42;70.22
65151;BME280;51918;51.856;0.150;2022-09-09T00:37:13;99343.88;;;16.31;70.33
65151;BME280;51918;51.856;0.150;2022-09-09T00:42:17;99344.53;;;16.26;70.58
65151;BME280;51918;51.856;0.150;2022-09-09T00:52:49;99348.72;;;16.27;70.86
65151;BME280;51918;51.856;0.150;2022-09-09T00:57:53;99342.97;;;16.37;70.74
65151;BME280;51918;51.856;0.150;2022-09-09T01:03:10;99342.06;;;16.31;70.74
65151;BME280;51918;51.856;0.150;2022-09-09T01:08:32;99340.47;;;16.30;70.57
65151;BME280;51918;51.856;0.150;2022-09-09T01:13:37;99320.97;;;16.28;70.80
65151;BME280;51918;51.856;0.150;2022-09-09T01:18:44;99323.13;;;16.31;70.86
65151;BME280;51918;51.856;0.150;2022-09-09T01:24:01;99328.88;;;16.21;70.92
65151;BME280;51918;51.856;0.150;2022-09-09T01:29:09;99321.19;;;16.26;70.88
65151;BME280;51918;51.856;0.150;2022-09-09T01:34:11;99329.88;;;16.32;71.06
65151;BME280;51918;51.856;0.150;2022-09-09T01:39:12;99314.50;;;16.42;70.69
65151;BME280;51918;51.856;0.150;2022-09-09T01:44:16;99301.16;;;16.50;70.32
65151;BME280;51918;51.856;0.150;2022-09-09T01:49:17;99307.47;;;16.54;69.88
65151;BME280;51918;51.856;0.150;2022-09-09T01:54:18;99301.47;;;16.54;69.40
65151;BME280;51918;51.856;0.150;2022-09-09T01:59:40;99302.19;;;16.49;69.36
65151;BME280;51918;51.856;0.150;2022-09-09T02:04:47;99304.47;;;16.46;69.11
65151;BME280;51918;51.856;0.150;2022-09-09T02:09:54;99301.44;;;16.37;68.86
65151;BME280;51918;51.856;0.150;2022-09-09T02:15:03;99307.19;;;16.27;69.09
65151;BME280;51918;51.856;0.150;2022-09-09T02:20:08;99304.28;;;16.24;69.64
65151;BME280;51918;51.856;0.150;2022-09-09T02:25:13;99293.09;;;16.23;69.72
65151;BME280;51918;51.856;0.150;2022-09-09T02:30:16;99286.91;;;16.24;70.11
65151;BME280;51918;51.856;0.150;2022-09-09T02:35:20;99295.22;;;16.26;70.04
65151;BME280;51918;51.856;0.150;2022-09-09T02:40:21;99294.00;;;16.29;70.02
65151;BME280;51918;51.856;0.150;2022-09-09T02:45:25;99291.72;;;16.32;70.38
65151;BME280;51918;51.856;0.150;2022-09-09T02:50:29;99290.03;;;16.38;70.52
65151;BME280;51918;51.856;0.150;2022-09-09T02:55:38;99299.72;;;16.42;70.49
65151;BME280;51918;51.856;0.150;2022-09-09T03:00:40;99297.91;;;16.43;70.26
65151;BME280;51918;51.856;0.150;2022-09-09T03:05:41;99297.69;;;16.45;70.51
65151;BME280;51918;51.856;0.150;2022-09-09T03:10:41;99307.84;;;16.34;70.53
65151;BME280;51918;51.856;0.150;2022-09-09T03:15:43;99307.84;;;16.46;70.32
65151;BME280;51918;51.856;0.150;2022-09-09T03:20:46;99316.19;;;16.48;70.52
65151;BME280;51918;51.856;0.150;2022-09-09T03:25:47;99317.31;;;16.52;70.47
65151;BME280;51918;51.856;0.150;2022-09-09T03:30:49;99317.63;;;16.56;70.30
65151;BME280;51918;51.856;0.150;2022-09-09T03:35:49;99321.59;;;16.58;70.43
65151;BME280;51918;51.856;0.150;2022-09-09T03:40:51;99327.31;;;16.60;70.55
65151;BME280;51918;51.856;0.150;2022-09-09T03:45:53;99329.69;;;16.62;70.41
65151;BME280;51918;51.856;0.150;2022-09-09T03:50:54;99341.66;;;16.63;70.38
65151;BME280;51918;51.856;0.150;2022-09-09T03:55:56;99337.03;;;16.65;70.44
65151;BME280;51918;51.856;0.150;2022-09-09T04:01:00;99333.63;;;16.65;70.49
65151;BME280;51918;51.856;0.150;2022-09-09T04:06:02;99330.47;;;16.62;70.45
65151;BME280;51918;51.856;0.150;2022-09-09T04:11:03;99330.72;;;16.61;70.17
65151;BME280;51918;51.856;0.150;2022-09-09T04:16:05;99343.34;;;16.57;70.71
65151;BME280;51918;51.856;0.150;2022-09-09T04:21:07;99345.41;;;16.55;70.78
65151;BME280;51918;51.856;0.150;2022-09-09T04:26:09;99336.25;;;16.53;70.66
65151;BME280;51918;51.856;0.150;2022-09-09T04:31:16;99341.47;;;16.53;70.55
65151;BME280;51918;51.856;0.150;2022-09-09T04:36:17;99346.09;;;16.51;70.87
65151;BME280;51918;51.856;0.150;2022-09-09T04:41:18;99350.25;;;16.52;71.13
65151;BME280;51918;51.856;0.150;2022-09-09T04:46:20;99352.53;;;16.48;71.11
65151;BME280;51918;51.856;0.150;2022-09-09T04:51:21;99359.06;;;16.51;71.05
65151;BME280;51918;51.856;0.150;2022-09-09T04:56:21;99361.53;;;16.57;70.35
65151;BME280;51918;51.856;0.150;2022-09-09T05:01:23;99360.28;;;16.60;70.19
65151;BME280;51918;51.856;0.150;2022-09-09T05:06:24;99368.06;;;16.60;70.49
65151;BME280;51918;51.856;0.150;2022-09-09T05:11:26;99375.63;;;16.61;70.37
65151;BME280;51918;51.856;0.150;2022-09-09T05:16:29;99370.78;;;16.65;70.36
65151;BME280;51918;51.856;0.150;2022-09-09T05:21:29;99375.97;;;16.65;70.25
65151;BME280;51918;51.856;0.150;2022-09-09T05:26:30;99364.56;;;16.66;70.16
65151;BME280;51918;51.856;0.150;2022-09-09T05:31:32;99385.09;;;16.68;70.02
65151;BME280;51918;51.856;0.150;2022-09-09T05:36:32;99380.69;;;16.68;70.13
65151;BME280;51918;51.856;0.150;2022-09-09T05:41:33;99379.16;;;16.55;70.24
65151;BME280;51918;51.856;0.150;2022-09-09T05:46:35;99385.88;;;16.68;69.81
65151;BME280;51918;51.856;0.150;2022-09-09T05:51:35;99398.53;;;16.65;69.85
65151;BME280;51918;51.856;0.150;2022-09-09T05:56:35;99404.66;;;16.47;70.03
65151;BME280;51918;51.856;0.150;2022-09-09T06:01:38;99405.88;;;16.56;70.24
65151;BME280;51918;51.856;0.150;2022-09-09T06:06:38;99412.91;;;16.55;69.93
65151;BME280;51918;51.856;0.150;2022-09-09T06:11:39;99418.00;;;16.50;70.27
65151;BME280;51918;51.856;0.150;2022-09-09T06:16:41;99423.63;;;16.47;70.46
65151;BME280;51918;51.856;0.150;2022-09-09T06:21:42;99433.69;;;16.44;70.71
65151;BME280;51918;51.856;0.150;2022-09-09T06:26:43;99433.44;;;16.45;70.43
65151;BME280;51918;51.856;0.150;2022-09-09T06:31:45;99444.63;;;16.22;70.61
65151;BME280;51918;51.856;0.150;2022-09-09T06:36:45;99446.09;;;16.41;70.41
65151;BME280;51918;51.856;0.150;2022-09-09T06:41:45;99450.72;;;16.39;70.76
65151;BME280;51918;51.856;0.150;2022-09-09T06:46:47;99454.22;;;16.57;69.95
65151;BME280;51918;51.856;0.150;2022-09-09T06:51:48;99455.34;;;16.61;69.88
65151;BME280;51918;51.856;0.150;2022-09-09T06:56:49;99474.97;;;16.69;69.51
65151;BME280;51918;51.856;0.150;2022-09-09T07:01:51;99473.97;;;16.70;69.31
65151;BME280;51918;51.856;0.150;2022-09-09T07:06:51;99483.00;;;16.67;69.35
65151;BME280;51918;51.856;0.150;2022-09-09T07:11:52;99480.75;;;16.59;69.50
65151;BME280;51918;51.856;0.150;2022-09-09T07:16:54;99483.78;;;16.68;69.53
65151;BME280;51918;51.856;0.150;2022-09-09T07:21:54;99491.34;;;16.69;69.49
65151;BME280;51918;51.856;0.150;2022-09-09T07:26:55;99495.78;;;16.80;69.25
65151;BME280;51918;51.856;0.150;2022-09-09T07:31:57;99507.41;;;16.78;68.70
65151;BME280;51918;51.856;0.150;2022-09-09T07:36:57;99513.56;;;16.77;68.71
65151;BME280;51918;51.856;0.150;2022-09-09T07:41:58;99521.03;;;16.73;68.87
65151;BME280;51918;51.856;0.150;2022-09-09T07:47:00;99530.66;;;16.61;69.09
65151;BME280;51918;51.856;0.150;2022-09-09T07:52:00;99543.41;;;16.74;69.12
65151;BME280;51918;51.856;0.150;2022-09-09T07:57:01;99542.03;;;16.72;69.12
65151;BME280;51918;51.856;0.150;2022-09-09T08:02:03;99540.72;;;16.81;69.43
65151;BME280;51918;51.856;0.150;2022-09-09T08:07:04;99549.59;;;16.97;69.61
65151;BME280;51918;51.856;0.150;2022-09-09T08:12:05;99556.50;;;17.03;69.44
65151;BME280;51918;51.856;0.150;2022-09-09T08:17:06;99564.28;;;17.03;69.09
65151;BME280;51918;51.856;0.150;2022-09-09T08:22:07;99573.09;;;17.26;68.78
65151;BME280;51918;51.856;0.150;2022-09-09T08:27:08;99567.84;;;17.49;67.96
65151;BME280;51918;51.856;0.150;2022-09-09T08:32:10;99580.09;;;17.65;67.53
65151;BME280;51918;51.856;0.150;2022-09-09T08:37:10;99583.41;;;17.73;67.28
65151;BME280;51918;51.856;0.150;2022-09-09T08:47:52;99592.66;;;18.09;66.68
65151;BME280;51918;51.856;0.150;2022-09-09T08:53:00;99594.00;;;18.29;66.78
65151;BME280;51918;51.856;0.150;2022-09-09T08:58:13;99591.34;;;18.57;66.29
65151;BME280;51918;51.856;0.150;2022-09-09T09:03:21;99602.94;;;19.00;65.54
65151;BME280;51918;51.856;0.150;2022-09-09T09:08:26;99603.94;;;19.38;64.98
65151;BME280;51918;51.856;0.150;2022-09-09T09:13:34;99609.94;;;19.83;63.50
65151;BME280;51918;51.856;0.150;2022-09-09T09:18:40;99626.19;;;20.39;63.87
65151;BME280;51918;51.856;0.150;2022-09-09T09:23:45;99624.34;;;21.09;61.28
65151;BME280;51918;51.856;0.150;2022-09-09T09:28:49;99636.94;;;21.81;59.27
65151;BME280;51918;51.856;0.150;2022-09-09T09:33:53;99645.44;;;22.29;56.28
65151;BME280;51918;51.856;0.150;2022-09-09T09:38:56;99653.28;;;22.39;55.41
65151;BME280;51918;51.856;0.150;2022-09-09T09:43:56;99660.88;;;22.41;55.17
65151;BME280;51918;51.856;0.150;2022-09-09T09:49:00;99658.78;;;22.27;54.97
65151;BME280;51918;51.856;0.150;2022-09-09T09:54:17;99668.94;;;21.88;54.79
65151;BME280;51918;51.856;0.150;2022-09-09T09:59:32;99680.88;;;21.74;55.36
65151;BME280;51918;51.856;0.150;2022-09-09T10:04:34;99680.59;;;21.65;54.07
65151;BME280;51918;51.856;0.150;2022-09-09T10:09:35;99682.75;;;21.78;54.67
65151;BME280;51918;51.856;0.150;2022-09-09T10:14:40;99689.63;;;21.95;53.38
65151;BME280;51918;51.856;0.150;2022-09-09T10:19:55;99697.78;;;22.03;54.13
65151;BME280;51918;51.856;0.150;2022-09-09T10:25:09;99695.69;;;22.10;53.35
65151;BME280;51918;51.856;0.150;2022-09-09T10:30:14;99703.06;;;22.34;52.64
65151;BME280;51918;51.856;0.150;2022-09-09T10:35:38;99707.03;;;22.42;51.98
65151;BME280;51918;51.856;0.150;2022-09-09T10:40:58;99709.13;;;23.27;52.96
65151;BME280;51918;51.856;0.150;2022-09-09T10:46:08;99711.19;;;24.55;49.42
65151;BME280;51918;51.856;0.150;2022-09-09T10:51:30;99699.69;;;25.39;46.52
65151;BME280;51918;51.856;0.150;2022-09-09T10:56:34;99709.34;;;26.10;45.70
65151;BME280;51918;51.856;0.150;2022-09-09T11:01:39;99712.06;;;26.76;44.90
65151;BME280;51918;51.856;0.150;2022-09-09T11:06:47;99701.00;;;27.76;43.33
65151;BME280;51918;51.856;0.150;2022-09-09T11:11:52;99696.50;;;28.58;41.80
65151;BME280;51918;51.856;0.150;2022-09-09T11:16:57;99703.75;;;28.97;38.49
65151;BME280;51918;51.856;0.150;2022-09-09T11:22:02;99695.63;;;29.34;38.31
65151;BME280;51918;51.856;0.150;2022-09-09T11:27:10;99701.81;;;29.95;36.94
65151;BME280;51918;51.856;0.150;2022-09-09T11:32:31;99707.41;;;30.72;34.97
65151;BME280;51918;51.856;0.150;2022-09-09T11:37:59;99713.25;;;30.95;35.26
65151;BME280;51918;51.856;0.150;2022-09-09T11:43:10;99717.53;;;31.26;34.22
65151;BME280;51918;51.856;0.150;2022-09-09T11:48:23;99716.31;;;31.15;34.42
65151;BME280;51918;51.856;0.150;2022-09-09T11:53:27;99716.84;;;31.38;33.97
65151;BME280;51918;51.856;0.150;2022-09-09T11:58:28;99735.41;;;31.76;34.30
65151;BME280;51918;51.856;0.150;2022-09-09T12:03:40;99729.16;;;32.69;33.70
65151;BME280;51918;51.856;0.150;2022-09-09T12:08:46;99727.66;;;33.29;31.22
65151;BME280;51918;51.856;0.150;2022-09-09T12:13:53;99724.06;;;33.62;30.65
65151;BME280;51918;51.856;0.150;2022-09-09T12:19:03;99714.25;;;34.19;31.37
65151;BME280;51918;51.856;0.150;2022-09-09T12:24:09;99717.00;;;34.82;29.25
65151;BME280;51918;51.856;0.150;2022-09-09T12:29:19;99721.25;;;35.15;27.62
65151;BME280;51918;51.856;0.150;2022-09-09T12:34:31;99717.34;;;35.28;27.78
65151;BME280;51918;51.856;0.150;2022-09-09T12:39:38;99713.19;;;35.31;27.65
65151;BME280;51918;51.856;0.150;2022-09-09T12:44:51;99714.41;;;35.02;26.88
65151;BME280;51918;51.856;0.150;2022-09-09T12:49:51;99705.28;;;35.03;26.14
65151;BME280;51918;51.856;0.150;2022-09-09T12:54:54;99707.19;;;35.02;25.82
65151;BME280;51918;51.856;0.150;2022-09-09T13:00:07;99710.19;;;35.33;27.25
65151;BME280;51918;51.856;0.150;2022-09-09T13:05:15;99718.91;;;35.65;25.82
65151;BME280;51918;51.856;0.150;2022-09-09T13:10:24;99716.38;;;35.37;26.02
65151;BME280;51918;51.856;0.150;2022-09-09T13:15:28;99715.47;;;35.48;25.06
65151;BME280;51918;51.856;0.150;2022-09-09T13:20:29;99696.91;;;35.75;24.86
65151;BME280;51918;51.856;0.150;2022-09-09T13:25:31;99704.94;;;35.95;25.86
65151;BME280;51918;51.856;0.150;2022-09-09T13:30:34;99705.59;;;36.07;24.65
65151;BME280;51918;51.856;0.150;2022-09-09T13:35:36;99707.94;;;35.35;24.51
65151;BME280;51918;51.856;0.150;2022-09-09T13:40:55;99716.84;;;34.59;25.19
65151;BME280;51918;51.856;0.150;2022-09-09T13:45:58;99717.13;;;33.20;26.50
65151;BME280;51918;51.856;0.150;2022-09-09T13:51:01;99708.00;;;32.51;27.86
65151;BME280;51918;51.856;0.150;2022-09-09T13:56:03;99702.91;;;32.13;29.27
65151;BME280;51918;51.856;0.150;2022-09-09T14:01:04;99704.97;;;31.65;29.58
65151;BME280;51918;51.856;0.150;2022-09-09T14:06:04;99713.59;;;31.32;29.99
65151;BME280;51918;51.856;0.150;2022-09-09T14:11:10;99712.88;;;30.67;29.81
65151;BME280;51918;51.856;0.150;2022-09-09T14:16:11;99726.00;;;29.94;31.75
65151;BME280;51918;51.856;0.150;2022-09-09T14:21:12;99733.16;;;28.87;33.14
65151;BME280;51918;51.856;0.150;2022-09-09T14:26:14;99730.50;;;28.42;34.15
65151;BME280;51918;51.856;0.150;2022-09-09T14:31:14;99732.59;;;27.95;35.07
65151;BME280;51918;51.856;0.150;2022-09-09T14:36:15;99733.09;;;27.55;36.64
65151;BME280;51918;51.856;0.150;2022-09-09T14:41:19;99735.72;;;27.14;36.90
65151;BME280;51918;51.856;0.150;2022-09-09T14:46:20;99731.72;;;26.84;37.88
65151;BME280;51918;51.856;0.150;2022-09-09T14:51:22;99732.06;;;26.25;38.46
65151;BME280;51918;51.856;0.150;2022-09-09T14:56:26;99738.28;;;25.96;40.05
65151;BME280;51918;51.856;0.150;2022-09-09T15:01:28;99751.31;;;25.83;39.84
65151;BME280;51918;51.856;0.150;2022-09-09T15:06:32;99747.94;;;25.58;40.29
65151;BME280;51918;51.856;0.150;2022-09-09T15:11:36;99755.72;;;25.15;41.42
65151;BME280;51918;51.856;0.150;2022-09-09T15:16:38;99771.38;;;24.62;42.11
65151;BME280;51918;51.856;0.150;2022-09-09T15:21:39;99778.41;;;24.22;43.47
65151;BME280;51918;51.856;0.150;2022-09-09T15:26:41;99776.19;;;23.94;44.29
65151;BME280;51918;51.856;0.150;2022-09-09T15:31:42;99779.94;;;23.63;44.97
65151;BME280;51918;51.856;0.150;2022-09-09T15:36:44;99783.91;;;23.40;44.94
65151;BME280;51918;51.856;0.150;2022-09-09T15:41:47;99799.66;;;23.14;45.62
65151;BME280;51918;51.856;0.150;2022-09-09T15:46:49;99804.91;;;23.04;46.06
65151;BME280;51918;51.856;0.150;2022-09-09T15:51:52;99796.78;;;22.85;46.66
65151;BME280;51918;51.856;0.150;2022-09-09T15:56:56;99803.06;;;22.89;47.14
65151;BME280;51918;51.856;0.150;2022-09-09T16:01:57;99808.31;;;22.89;47.55
65151;BME280;51918;51.856;0.150;2022-09-09T16:07:00;99809.09;;;22.89;47.37
65151;BME280;51918;51.856;0.150;2022-09-09T16:12:03;99801.75;;;22.76;47.44
65151;BME280;51918;51.856;0.150;2022-09-09T16:17:05;99798.59;;;22.74;45.69
65151;BME280;51918;51.856;0.150;2022-09-09T16:22:06;99804.91;;;22.93;45.39
65151;BME280;51918;51.856;0.150;2022-09-09T16:27:08;99797.03;;;22.93;44.87
65151;BME280;51918;51.856;0.150;2022-09-09T16:32:08;99806.19;;;22.86;44.87
65151;BME280;51918;51.856;0.150;2022-09-09T16:37:09;99805.94;;;22.92;44.68
65151;BME280;51918;51.856;0.150;2022-09-09T16:42:11;99821.16;;;22.90;44.87
65151;BME280;51918;51.856;0.150;2022-09-09T16:47:11;99812.25;;;22.97;44.73
65151;BME280;51918;51.856;0.150;2022-09-09T16:52:12;99819.06;;;22.87;45.59
65151;BME280;51918;51.856;0.150;2022-09-09T16:57:14;99825.53;;;22.49;46.88
65151;BME280;51918;51.856;0.150;2022-09-09T17:02:14;99830.66;;;22.28;47.42
65151;BME280;51918;51.856;0.150;2022-09-09T17:07:15;99833.97;;;22.03;48.30
65151;BME280;51918;51.856;0.150;2022-09-09T17:12:17;99839.03;;;21.73;48.76
65151;BME280;51918;51.856;0.150;2022-09-09T17:17:17;99850.91;;;21.53;50.04
65151;BME280;51918;51.856;0.150;2022-09-09T17:22:18;99852.13;;;21.40;50.43
65151;BME280;51918;51.856;0.150;2022-09-09T17:27:20;99862.41;;;21.20;51.13
65151;BME280;51918;51.856;0.150;2022-09-09T17:32:20;99855.91;;;20.95;51.84
65151;BME280;51918;51.856;0.150;2022-09-09T17:37:21;99850.25;;;20.81;52.14
65151;BME280;51918;51.856;0.150;2022-09-09T17:42:23;99863.66;;;20.63;52.33
65151;BME280;51918;51.856;0.150;2022-09-09T17:47:24;99869.69;;;20.41;52.77
65151;BME280;51918;51.856;0.150;2022-09-09T17:52:25;99873.44;;;20.12;52.13
65151;BME280;51918;51.856;0.150;2022-09-09T17:57:27;99874.81;;;19.97;52.56
65151;BME280;51918;51.856;0.150;2022-09-09T18:02:27;99888.50;;;19.87;52.88
65151;BME280;51918;51.856;0.150;2022-09-09T18:07:27;99898.00;;;19.77;52.99
65151;BME280;51918;51.856;0.150;2022-09-09T18:12:29;99911.13;;;19.65;53.09
65151;BME280;51918;51.856;0.150;2022-09-09T18:17:30;99910.56;;;19.46;53.99
65151;BME280;51918;51.856;0.150;2022-09-09T18:22:31;99917.59;;;19.34;54.41
65151;BME280;51918;51.856;0.150;2022-09-09T18:27:34;99917.34;;;19.18;54.34
65151;BME280;51918;51.856;0.150;2022-09-09T18:32:34;99917.63;;;19.05;54.84
65151;BME280;51918;51.856;0.150;2022-09-09T18:37:35;99915.63;;;18.95;54.81
65151;BME280;51918;51.856;0.150;2022-09-09T18:42:37;99926.66;;;18.85;55.05
65151;BME280;51918;51.856;0.150;2022-09-09T18:47:37;99934.59;;;18.79;55.47
65151;BME280;51918;51.856;0.150;2022-09-09T18:52:38;99930.97;;;18.56;55.49
65151;BME280;51918;51.856;0.150;2022-09-09T18:57:39;99941.06;;;18.64;55.55
65151;BME280;51918;51.856;0.150;2022-09-09T19:02:40;99951.03;;;18.56;56.08
65151;BME280;51918;51.856;0.150;2022-09-09T19:07:40;99960.66;;;18.32;56.01
65151;BME280;51918;51.856;0.150;2022-09-09T19:12:42;99967.78;;;18.36;56.48
65151;BME280;51918;51.856;0.150;2022-09-09T19:17:43;99979.00;;;18.25;56.77
65151;BME280;51918;51.856;0.150;2022-09-09T19:22:43;99984.06;;;17.96;57.18
65151;BME280;51918;51.856;0.150;2022-09-09T19:27:45;99991.88;;;17.96;57.92
65151;BME280;51918;51.856;0.150;2022-09-09T19:32:46;99998.63;;;17.86;58.35
65151;BME280;51918;51.856;0.150;2022-09-09T19:37:46;100007.78;;;17.58;58.92
65151;BME280;51918;51.856;0.150;2022-09-09T19:42:48;100012.91;;;17.64;59.29
65151;BME280;51918;51.856;0.150;2022-09-09T19:47:49;100011.06;;;17.53;59.42
65151;BME280;51918;51.856;0.150;2022-09-09T19:52:49;100017.13;;;17.47;59.77
65151;BME280;51918;51.856;0.150;2022-09-09T19:57:51;100034.59;;;17.40;59.99
65151;BME280;51918;51.856;0.150;2022-09-09T20:02:52;100028.91;;;17.31;60.34
65151;BME280;51918;51.856;0.150;2022-09-09T20:07:52;100039.47;;;17.18;60.77
65151;BME280;51918;51.856;0.150;2022-09-09T20:12:54;100051.16;;;17.09;60.43
65151;BME280;51918;51.856;0.150;2022-09-09T20:17:55;100055.63;;;17.01;61.08
65151;BME280;51918;51.856;0.150;2022-09-09T20:22:55;100063.34;;;16.90;61.36
65151;BME280;51918;51.856;0.150;2022-09-09T20:27:57;100071.06;;;16.78;61.25
65151;BME280;51918;51.856;0.150;2022-09-09T20:32:58;100067.91;;;16.69;61.49
65151;BME280;51918;51.856;0.150;2022-09-09T20:37:58;100075.13;;;16.60;62.13
65151;BME280;51918;51.856;0.150;2022-09-09T20:43:00;100080.38;;;16.54;61.86
65151;BME280;51918;51.856;0.150;2022-09-09T20:48:01;100084.41;;;16.50;62.49
65151;BME280;51918;51.856;0.150;2022-09-09T20:53:02;100082.88;;;16.42;62.53
65151;BME280;51918;51.856;0.150;2022-09-09T20:58:04;100084.31;;;16.38;62.70
65151;BME280;51918;51.856;0.150;2022-09-09T21:03:04;100098.56;;;16.29;62.63
65151;BME280;51918;51.856;0.150;2022-09-09T21:08:05;100106.00;;;16.18;62.86
65151;BME280;51918;51.856;0.150;2022-09-09T21:13:07;100110.78;;;16.15;63.12
65151;BME280;51918;51.856;0.150;2022-09-09T21:18:08;100105.59;;;16.15;63.12
65151;BME280;51918;51.856;0.150;2022-09-09T21:23:08;100122.19;;;16.14;63.22
65151;BME280;51918;51.856;0.150;2022-09-09T21:28:11;100116.03;;;16.08;63.08
65151;BME280;51918;51.856;0.150;2022-09-09T21:33:11;100123.41;;;16.05;63.72
65151;BME280;51918;51.856;0.150;2022-09-09T21:38:12;100123.91;;;15.88;63.76
65151;BME280;51918;51.856;0.150;2022-09-09T21:43:16;100120.06;;;15.97;64.21
65151;BME280;51918;51.856;0.150;2022-09-09T21:48:17;100123.09;;;15.94;64.36
65151;BME280;51918;51.856;0.150;2022-09-09T21:53:18;100119.34;;;15.77;64.24
65151;BME280;51918;51.856;0.150;2022-09-09T21:58:20;100121.31;;;15.81;64.40
65151;BME280;51918;51.856;0.150;2022-09-09T22:03:20;100117.13;;;15.74;64.85
65151;BME280;51918;51.856;0.150;2022-09-09T22:08:21;100116.97;;;15.69;64.96
65151;BME280;51918;51.856;0.150;2022-09-09T22:13:22;100121.63;;;15.47;65.41
65151;BME280;51918;51.856;0.150;2022-09-09T22:18:23;100127.38;;;15.55;65.81
65151;BME280;51918;51.856;0.150;2022-09-09T22:23:24;100129.16;;;15.55;65.75
65151;BME280;51918;51.856;0.150;2022-09-09T22:28:26;100123.59;;;15.51;65.79
65151;BME280;51918;51.856;0.150;2022-09-09T22:33:26;100130.41;;;15.46;66.04
65151;BME280;51918;51.856;0.150;2022-09-09T22:38:27;100125.84;;;15.28;65.88
65151;BME280;51918;51.856;0.150;2022-09-09T22:43:29;100130.22;;;15.34;66.00
65151;BME280;51918;51.856;0.150;2022-09-09T22:48:31;100139.59;;;15.28;66.24
65151;BME280;51918;51.856;0.150;2022-09-09T22:53:32;100143.59;;;15.24;66.58
65151;BME280;51918;51.856;0.150;2022-09-09T22:58:35;100149.78;;;15.16;66.67
65151;BME280;51918;51.856;0.150;2022-09-09T23:03:36;100158.56;;;15.15;66.54
65151;BME280;51918;51.856;0.150;2022-09-09T23:08:37;100159.94;;;15.11;66.70
65151;BME280;51918;51.856;0.150;2022-09-09T23:13:41;100167.91;;;15.10;66.70
65151;BME280;51918;51.856;0.150;2022-09-09T23:18:42;100165.94;;;14.98;67.10
65151;BME280;51918;51.856;0.150;2022-09-09T23:23:43;100171.28;;;14.97;67.59
65151;BME280;51918;51.856;0.150;2022-09-09T23:28:47;100173.28;;;14.95;67.24
65151;BME280;51918;51.856;0.150;2022-09-09T23:33:48;100172.72;;;14.93;67.57
65151;BME280;51918;51.856;0.150;2022-09-09T23:38:48;100174.09;;;14.89;67.59
65151;BME280;51918;51.856;0.150;2022-09-09T23:43:51;100170.69;;;14.88;67.41
65151;BME280;51918;51.856;0.150;2022-09-09T23:48:53;100171.50;;;14.89;67.64
65151;BME280;51918;51.856;0.150;2022-09-09T23:53:54;100182.25;;;14.86;67.64
65151;BME280;51918;51.856;0.150;2022-09-09T23:58:56;100181.88;;;14.82;68.03
